createdAt,value
2017-07-27T00:01:00.507Z,77.4
2017-07-27T00:02:01.904Z,76.9
2017-07-27T00:03:03.312Z,77.1
2017-07-27T00:04:04.713Z,77.5
2017-07-27T00:05:06.111Z,77.3
2017-07-27T00:06:07.510Z,78.1
2017-07-27T00:07:08.908Z,78.0
2017-07-27T00:08:10.303Z,77.9
2017-07-27T00:09:11.703Z,77.8
2017-07-27T00:10:13.116Z,78.4
2017-07-27T00:11:14.516Z,78.3
2017-07-27T00:12:15.916Z,78.1
2017-07-27T00:13:17.318Z,78.6
2017-07-27T00:14:18.711Z,78.0
2017-07-27T00:15:20.108Z,78.5
2017-07-27T00:16:21.507Z,78.1
2017-07-27T00:17:22.905Z,79.2
2017-07-27T00:18:24.305Z,78.8
2017-07-27T00:19:25.705Z,79.2
2017-07-27T00:20:27.105Z,78.8
2017-07-27T00:21:28.503Z,78.6
2017-07-27T00:22:29.901Z,79.2
2017-07-27T00:23:31.299Z,79.2
2017-07-27T00:24:32.700Z,79.0
2017-07-27T00:25:34.097Z,79.2
2017-07-27T00:26:35.502Z,79.5
2017-07-27T00:27:36.900Z,79.6
2017-07-27T00:28:38.296Z,79.5
2017-07-27T00:29:39.693Z,79.6
2017-07-27T00:30:41.093Z,79.3
2017-07-27T00:31:42.491Z,79.5
2017-07-27T00:32:43.883Z,79.3
2017-07-27T00:33:45.288Z,79.6
2017-07-27T00:34:46.688Z,80.0
2017-07-27T00:35:48.081Z,80.0
2017-07-27T00:36:49.480Z,79.5
2017-07-27T00:37:50.874Z,79.6
2017-07-27T00:38:52.274Z,79.6
2017-07-27T00:39:53.674Z,79.7
2017-07-27T00:40:55.073Z,79.4
2017-07-27T00:41:56.471Z,79.9
2017-07-27T00:42:57.870Z,79.4
2017-07-27T00:43:59.267Z,79.9
2017-07-27T00:45:00.666Z,79.8
2017-07-27T00:46:02.067Z,80.3
2017-07-27T00:47:03.461Z,80.1
2017-07-27T00:48:04.863Z,79.9
2017-07-27T00:49:06.264Z,79.8
2017-07-27T00:50:07.663Z,80.1
2017-07-27T00:51:09.062Z,80.1
2017-07-27T00:52:10.459Z,80.5
2017-07-27T00:53:11.857Z,80.3
2017-07-27T00:54:13.255Z,80.6
2017-07-27T00:55:14.656Z,80.1
2017-07-27T00:56:16.054Z,80.2
2017-07-27T00:57:17.457Z,80.6
2017-07-27T00:58:18.852Z,80.7
2017-07-27T00:59:20.246Z,80.2
2017-07-27T01:00:21.641Z,80.1
2017-07-27T01:01:23.039Z,81.1
2017-07-27T01:02:24.449Z,80.7
2017-07-27T01:03:25.846Z,80.9
2017-07-27T01:04:27.237Z,81.4
2017-07-27T01:05:28.633Z,81.4
2017-07-27T01:06:30.031Z,81.3
2017-07-27T01:07:31.449Z,82.1
2017-07-27T01:08:32.845Z,82.4
2017-07-27T01:09:34.243Z,82.5
2017-07-27T01:10:35.643Z,82.1
2017-07-27T01:11:37.039Z,82.7
2017-07-27T01:12:38.443Z,82.2
2017-07-27T01:13:39.835Z,82.5
2017-07-27T01:14:41.233Z,82.2
2017-07-27T01:15:42.630Z,83.0
2017-07-27T01:16:44.028Z,83.2
2017-07-27T01:17:45.426Z,83.9
2017-07-27T01:18:46.826Z,84.8
2017-07-27T01:19:48.223Z,85.0
2017-07-27T01:20:49.619Z,85.2
2017-07-27T01:21:51.019Z,85.3
2017-07-27T01:22:52.417Z,85.2
2017-07-27T01:23:53.818Z,85.9
2017-07-27T01:24:55.214Z,86.1
2017-07-27T01:25:56.613Z,86.4
2017-07-27T01:26:58.017Z,86.9
2017-07-27T01:27:59.416Z,86.7
2017-07-27T01:29:00.813Z,87.3
2017-07-27T01:30:02.210Z,87.3
2017-07-27T01:31:03.608Z,87.2
2017-07-27T01:32:05.006Z,87.1
2017-07-27T01:33:06.405Z,87.0
2017-07-27T01:34:07.813Z,87.2
2017-07-27T01:35:09.192Z,87.4
2017-07-27T01:36:10.590Z,87.2
2017-07-27T01:37:11.992Z,86.5
2017-07-27T01:38:13.392Z,87.2
2017-07-27T01:39:14.807Z,87.0
2017-07-27T01:40:16.208Z,87.0
2017-07-27T01:41:17.606Z,87.4
2017-07-27T01:42:19.005Z,87.3
2017-07-27T01:43:20.400Z,87.1
2017-07-27T01:44:21.799Z,86.7
2017-07-27T01:45:23.200Z,86.9
2017-07-27T01:46:24.598Z,86.6
2017-07-27T01:47:25.992Z,87.0
2017-07-27T01:48:27.388Z,86.7
2017-07-27T01:49:28.787Z,86.3
2017-07-27T01:50:30.184Z,86.1
2017-07-27T01:51:31.581Z,86.1
2017-07-27T01:52:32.982Z,86.4
2017-07-27T01:53:34.384Z,86.4
2017-07-27T01:54:36.433Z,85.7
2017-07-27T01:55:37.831Z,85.8
2017-07-27T01:56:39.232Z,85.9
2017-07-27T01:57:40.630Z,85.9
2017-07-27T01:58:42.032Z,85.6
2017-07-27T01:59:43.428Z,85.6
2017-07-27T02:00:44.826Z,86.1
2017-07-27T02:01:46.222Z,85.7
2017-07-27T02:02:47.622Z,86.1
2017-07-27T02:03:49.021Z,85.6
2017-07-27T02:04:50.418Z,85.3
2017-07-27T02:05:51.817Z,86.3
2017-07-27T02:06:53.228Z,85.5
2017-07-27T02:07:54.627Z,85.3
2017-07-27T02:08:56.021Z,85.1
2017-07-27T02:09:57.419Z,84.9
2017-07-27T02:10:58.818Z,85.0
2017-07-27T02:12:00.222Z,85.0
2017-07-27T02:13:01.612Z,85.0
2017-07-27T02:14:03.016Z,84.9
2017-07-27T02:15:04.417Z,85.1
2017-07-27T02:16:05.814Z,84.9
2017-07-27T02:17:07.213Z,85.5
2017-07-27T02:18:08.608Z,84.8
2017-07-27T02:19:10.014Z,84.7
2017-07-27T02:20:11.408Z,84.6
2017-07-27T02:21:12.806Z,84.6
2017-07-27T02:22:14.204Z,84.6
2017-07-27T02:23:15.623Z,84.7
2017-07-27T02:24:17.018Z,84.6
2017-07-27T02:25:18.420Z,85.0
2017-07-27T02:26:19.817Z,85.4
2017-07-27T02:27:21.214Z,85.0
2017-07-27T02:28:22.616Z,85.0
2017-07-27T02:29:24.016Z,84.6
2017-07-27T02:30:25.415Z,84.4
2017-07-27T02:31:26.820Z,84.7
2017-07-27T02:32:28.222Z,84.5
2017-07-27T02:33:29.617Z,84.6
2017-07-27T02:34:31.016Z,85.6
2017-07-27T02:35:32.427Z,85.0
2017-07-27T02:36:33.830Z,85.5
2017-07-27T02:37:35.228Z,85.7
2017-07-27T02:38:36.619Z,85.9
2017-07-27T02:39:38.021Z,86.3
2017-07-27T02:40:39.420Z,86.7
2017-07-27T02:41:40.820Z,87.7
2017-07-27T02:42:42.220Z,88.0
2017-07-27T02:43:43.622Z,88.0
2017-07-27T02:44:45.019Z,89.3
2017-07-27T02:45:46.417Z,89.1
2017-07-27T02:46:47.815Z,89.0
2017-07-27T02:47:49.214Z,89.4
2017-07-27T02:48:50.610Z,89.5
2017-07-27T02:49:52.007Z,89.4
2017-07-27T02:50:53.412Z,89.3
2017-07-27T02:51:54.808Z,89.6
2017-07-27T02:52:56.208Z,89.3
2017-07-27T02:53:57.602Z,89.4
2017-07-27T02:54:58.997Z,90.2
2017-07-27T02:56:00.399Z,90.1
2017-07-27T02:57:01.800Z,90.2
2017-07-27T02:58:03.206Z,90.0
2017-07-27T02:59:04.600Z,90.9
2017-07-27T03:00:05.993Z,91.1
2017-07-27T03:01:07.398Z,91.6
2017-07-27T03:02:08.797Z,91.5
2017-07-27T03:03:10.203Z,91.6
2017-07-27T03:04:11.596Z,91.4
2017-07-27T03:05:12.996Z,91.5
2017-07-27T03:06:14.419Z,91.5
2017-07-27T03:07:15.813Z,91.8
2017-07-27T03:08:17.211Z,91.5
2017-07-27T03:09:18.608Z,92.0
2017-07-27T03:10:20.005Z,92.2
2017-07-27T03:11:21.405Z,92.0
2017-07-27T03:12:22.804Z,92.3
2017-07-27T03:13:24.199Z,92.1
2017-07-27T03:14:25.598Z,92.0
2017-07-27T03:15:26.996Z,92.2
2017-07-27T03:16:28.394Z,92.2
2017-07-27T03:17:29.792Z,92.3
2017-07-27T03:18:31.189Z,92.0
2017-07-27T03:19:32.592Z,91.7
2017-07-27T03:20:33.987Z,91.6
2017-07-27T03:21:35.385Z,91.5
2017-07-27T03:22:36.786Z,91.4
2017-07-27T03:23:38.185Z,91.4
2017-07-27T03:24:39.582Z,91.0
2017-07-27T03:25:40.981Z,91.4
2017-07-27T03:26:42.377Z,91.2
2017-07-27T03:27:43.772Z,91.0
2017-07-27T03:28:45.170Z,91.4
2017-07-27T03:29:46.574Z,91.0
2017-07-27T03:30:47.970Z,91.1
2017-07-27T03:31:49.369Z,90.5
2017-07-27T03:32:50.766Z,90.6
2017-07-27T03:33:52.172Z,90.7
2017-07-27T03:34:53.568Z,90.5
2017-07-27T03:35:54.961Z,90.4
2017-07-27T03:36:56.363Z,90.1
2017-07-27T03:37:57.757Z,90.7
2017-07-27T03:38:59.156Z,90.0
2017-07-27T03:40:00.562Z,90.7
2017-07-27T03:41:01.958Z,90.5
2017-07-27T03:42:03.359Z,90.1
2017-07-27T03:43:04.756Z,90.1
2017-07-27T03:44:06.154Z,90.3
2017-07-27T03:45:07.557Z,90.1
2017-07-27T03:46:08.955Z,90.6
2017-07-27T03:47:10.359Z,90.8
2017-07-27T03:48:11.760Z,90.9
2017-07-27T03:49:13.157Z,90.7
2017-07-27T03:50:14.553Z,90.0
2017-07-27T03:51:15.955Z,90.6
2017-07-27T03:52:17.352Z,90.9
2017-07-27T03:53:18.750Z,90.1
2017-07-27T03:54:20.163Z,90.4
2017-07-27T03:55:21.560Z,90.2
2017-07-27T03:56:22.961Z,90.3
2017-07-27T03:57:24.368Z,89.9
2017-07-27T03:58:25.757Z,90.4
2017-07-27T03:59:27.164Z,90.3
2017-07-27T04:00:28.559Z,90.3
2017-07-27T04:01:29.962Z,90.0
2017-07-27T04:02:31.361Z,89.6
2017-07-27T04:03:32.760Z,90.1
2017-07-27T04:04:34.166Z,89.9
2017-07-27T04:05:35.549Z,89.9
2017-07-27T04:06:36.956Z,89.9
2017-07-27T04:07:38.353Z,90.2
2017-07-27T04:08:39.754Z,90.0
2017-07-27T04:09:41.154Z,90.2
2017-07-27T04:10:42.554Z,90.0
2017-07-27T04:11:43.953Z,90.1
2017-07-27T04:12:45.352Z,89.9
2017-07-27T04:13:46.752Z,89.6
2017-07-27T04:14:48.154Z,89.7
2017-07-27T04:15:49.562Z,90.2
2017-07-27T04:16:50.959Z,89.5
2017-07-27T04:17:52.361Z,89.4
2017-07-27T04:18:53.758Z,89.7
2017-07-27T04:19:55.159Z,89.4
2017-07-27T04:20:56.557Z,89.7
2017-07-27T04:21:57.961Z,89.5
2017-07-27T04:22:59.364Z,89.8
2017-07-27T04:24:00.764Z,90.2
2017-07-27T04:25:02.178Z,89.4
2017-07-27T04:26:03.566Z,89.5
2017-07-27T04:27:04.971Z,89.4
2017-07-27T04:28:06.371Z,89.8
2017-07-27T04:29:07.885Z,89.6
2017-07-27T04:30:09.286Z,89.5
2017-07-27T04:31:10.700Z,89.3
2017-07-27T04:32:12.099Z,89.7
2017-07-27T04:33:13.505Z,89.4
2017-07-27T04:34:14.907Z,90.1
2017-07-27T04:35:16.307Z,89.9
2017-07-27T04:36:17.707Z,89.7
2017-07-27T04:37:19.113Z,90.0
2017-07-27T04:38:20.512Z,90.2
2017-07-27T04:39:22.223Z,89.7
2017-07-27T04:40:23.605Z,89.6
2017-07-27T04:41:25.011Z,89.4
2017-07-27T04:42:26.411Z,89.9
2017-07-27T04:43:27.817Z,89.4
2017-07-27T04:44:29.219Z,90.4
2017-07-27T04:45:30.622Z,90.1
2017-07-27T04:46:32.021Z,90.0
2017-07-27T04:47:33.418Z,90.2
2017-07-27T04:48:34.831Z,89.4
2017-07-27T04:49:36.223Z,90.0
2017-07-27T04:50:37.629Z,90.4
2017-07-27T04:51:39.031Z,90.5
2017-07-27T04:52:40.547Z,89.9
2017-07-27T04:53:41.952Z,89.4
2017-07-27T04:54:43.354Z,90.3
2017-07-27T04:55:44.755Z,89.5
2017-07-27T04:56:46.157Z,89.5
2017-07-27T04:57:47.558Z,90.3
2017-07-27T04:58:48.965Z,90.4
2017-07-27T04:59:50.365Z,90.3
2017-07-27T05:00:51.779Z,90.0
2017-07-27T05:01:53.177Z,89.4
2017-07-27T05:02:54.579Z,89.6
2017-07-27T05:03:56.005Z,89.7
2017-07-27T05:04:57.417Z,89.5
2017-07-27T05:05:58.830Z,89.0
2017-07-27T05:07:00.230Z,89.5
2017-07-27T05:08:01.630Z,89.3
2017-07-27T05:09:03.032Z,89.3
2017-07-27T05:10:04.432Z,89.4
2017-07-27T05:11:05.836Z,89.1
2017-07-27T05:12:07.261Z,89.4
2017-07-27T05:13:08.644Z,89.4
2017-07-27T05:14:10.051Z,89.3
2017-07-27T05:15:11.449Z,89.5
2017-07-27T05:16:12.856Z,89.0
2017-07-27T05:17:14.271Z,89.3
2017-07-27T05:18:15.665Z,88.3
2017-07-27T05:19:17.067Z,87.9
2017-07-27T05:20:18.471Z,87.9
2017-07-27T05:21:19.873Z,88.3
2017-07-27T05:22:21.273Z,87.7
2017-07-27T05:23:22.673Z,88.1
2017-07-27T05:24:24.082Z,87.5
2017-07-27T05:25:25.481Z,86.9
2017-07-27T05:26:26.881Z,87.3
2017-07-27T05:27:28.282Z,87.6
2017-07-27T05:28:29.688Z,87.4
2017-07-27T05:29:31.088Z,87.5
2017-07-27T05:30:32.500Z,87.4
2017-07-27T05:31:33.902Z,87.4
2017-07-27T05:32:35.301Z,87.4
2017-07-27T05:33:36.703Z,87.2
2017-07-27T05:34:38.108Z,87.2
2017-07-27T05:35:39.512Z,87.4
2017-07-27T05:36:40.914Z,87.6
2017-07-27T05:37:42.316Z,87.8
2017-07-27T05:38:43.716Z,87.9
2017-07-27T05:39:45.119Z,88.3
2017-07-27T05:40:46.525Z,87.8
2017-07-27T05:41:47.929Z,87.7
2017-07-27T05:42:49.328Z,87.2
2017-07-27T05:43:50.730Z,87.4
2017-07-27T05:44:52.154Z,87.5
2017-07-27T05:45:53.537Z,88.4
2017-07-27T05:46:54.935Z,88.3
2017-07-27T05:47:56.338Z,88.0
2017-07-27T05:48:57.742Z,88.2
2017-07-27T05:49:59.144Z,88.3
2017-07-27T05:51:00.547Z,87.2
2017-07-27T05:52:01.946Z,85.9
2017-07-27T05:53:03.348Z,86.4
2017-07-27T05:54:04.748Z,86.6
2017-07-27T05:55:06.152Z,86.8
2017-07-27T05:56:07.559Z,86.2
2017-07-27T05:57:08.961Z,86.0
2017-07-27T05:58:10.527Z,85.7
2017-07-27T05:59:11.927Z,85.7
2017-07-27T06:00:13.327Z,86.3
2017-07-27T06:01:14.729Z,85.9
2017-07-27T06:02:16.131Z,85.9
2017-07-27T06:03:17.538Z,85.6
2017-07-27T06:04:18.939Z,85.9
2017-07-27T06:05:20.340Z,85.6
2017-07-27T06:06:21.740Z,85.1
2017-07-27T06:07:23.141Z,86.2
2017-07-27T06:08:24.545Z,85.1
2017-07-27T06:09:25.949Z,85.2
2017-07-27T06:10:27.374Z,84.8
2017-07-27T06:11:28.810Z,85.3
2017-07-27T06:12:30.211Z,84.7
2017-07-27T06:13:31.613Z,82.1
2017-07-27T06:14:33.016Z,82.1
2017-07-27T06:15:34.419Z,82.5
2017-07-27T06:16:35.820Z,81.8
2017-07-27T06:17:37.224Z,82.4
2017-07-27T06:18:38.635Z,81.8
2017-07-27T06:19:40.035Z,82.8
2017-07-27T06:20:41.438Z,82.7
2017-07-27T06:21:42.847Z,82.4
2017-07-27T06:22:44.252Z,82.5
2017-07-27T06:23:45.653Z,82.8
2017-07-27T06:24:47.059Z,82.4
2017-07-27T06:25:48.462Z,83.3
2017-07-27T06:26:49.862Z,82.9
2017-07-27T06:27:51.263Z,83.1
2017-07-27T06:28:52.665Z,83.1
2017-07-27T06:29:54.068Z,83.2
2017-07-27T06:30:55.472Z,83.1
2017-07-27T06:31:56.873Z,83.2
2017-07-27T06:32:58.276Z,82.7
2017-07-27T06:33:59.677Z,82.7
2017-07-27T06:35:01.078Z,82.4
2017-07-27T06:36:02.478Z,82.0
2017-07-27T06:37:03.881Z,83.1
2017-07-27T06:38:05.283Z,83.4
2017-07-27T06:39:06.686Z,83.2
2017-07-27T06:40:08.110Z,83.6
2017-07-27T06:41:09.511Z,84.2
2017-07-27T06:42:10.913Z,84.6
2017-07-27T06:43:12.317Z,83.2
2017-07-27T06:44:13.719Z,84.0
2017-07-27T06:45:15.124Z,84.3
2017-07-27T06:46:16.529Z,83.9
2017-07-27T06:47:17.934Z,84.3
2017-07-27T06:48:19.340Z,84.1
2017-07-27T06:49:20.741Z,83.6
2017-07-27T06:50:22.144Z,83.1
2017-07-27T06:51:23.549Z,82.5
2017-07-27T06:52:24.952Z,82.8
2017-07-27T06:53:26.360Z,81.4
2017-07-27T06:54:27.766Z,80.8
2017-07-27T06:55:29.166Z,79.1
2017-07-27T06:56:30.569Z,77.0
2017-07-27T06:57:31.973Z,78.3
2017-07-27T06:58:33.377Z,77.0
2017-07-27T06:59:34.780Z,77.8
2017-07-27T07:00:36.185Z,78.5
2017-07-27T07:01:37.591Z,78.4
2017-07-27T07:02:38.994Z,78.4
2017-07-27T07:03:40.397Z,78.4
2017-07-27T07:04:41.804Z,79.2
2017-07-27T07:05:43.211Z,79.2
2017-07-27T07:06:44.613Z,79.4
2017-07-27T07:07:46.021Z,79.8
2017-07-27T07:08:47.434Z,79.9
2017-07-27T07:09:48.835Z,80.2
2017-07-27T07:10:50.241Z,80.2
2017-07-27T07:11:51.648Z,79.8
2017-07-27T07:12:53.048Z,79.8
2017-07-27T07:13:54.451Z,79.8
2017-07-27T07:14:55.855Z,79.9
2017-07-27T07:15:57.274Z,79.7
2017-07-27T07:16:58.657Z,79.5
2017-07-27T07:18:00.056Z,80.0
2017-07-27T07:19:01.460Z,80.6
2017-07-27T07:20:02.861Z,79.9
2017-07-27T07:21:04.267Z,79.8
2017-07-27T07:22:05.673Z,80.4
2017-07-27T07:23:07.084Z,80.5
2017-07-27T07:24:08.482Z,80.4
2017-07-27T07:25:09.885Z,80.4
2017-07-27T07:26:11.288Z,80.0
2017-07-27T07:27:12.690Z,80.4
2017-07-27T07:28:14.098Z,80.2
2017-07-27T07:29:15.495Z,80.8
2017-07-27T07:30:16.900Z,80.8
2017-07-27T07:31:18.301Z,81.0
2017-07-27T07:32:19.703Z,81.2
2017-07-27T07:33:21.108Z,81.5
2017-07-27T07:34:22.514Z,81.4
2017-07-27T07:35:23.916Z,81.7
2017-07-27T07:36:25.317Z,80.9
2017-07-27T07:37:26.722Z,80.7
2017-07-27T07:38:28.124Z,80.9
2017-07-27T07:39:29.522Z,81.2
2017-07-27T07:40:30.925Z,81.6
2017-07-27T07:41:32.328Z,80.8
2017-07-27T07:42:33.729Z,81.6
2017-07-27T07:43:35.175Z,81.4
2017-07-27T07:44:36.582Z,80.3
2017-07-27T07:45:37.980Z,80.9
2017-07-27T07:46:39.389Z,80.8
2017-07-27T07:47:40.791Z,80.9
2017-07-27T07:48:42.199Z,80.8
2017-07-27T07:49:43.599Z,80.9
2017-07-27T07:50:45.003Z,81.2
2017-07-27T07:51:46.421Z,81.3
2017-07-27T07:52:47.815Z,81.4
2017-07-27T07:53:49.217Z,80.8
2017-07-27T07:54:50.618Z,81.2
2017-07-27T07:55:52.021Z,81.4
2017-07-27T07:56:53.426Z,80.8
2017-07-27T07:57:54.832Z,81.2
2017-07-27T07:58:56.235Z,81.3
2017-07-27T07:59:57.634Z,80.9
2017-07-27T08:00:59.037Z,80.4
2017-07-27T08:02:00.435Z,79.9
2017-07-27T08:03:01.841Z,80.0
2017-07-27T08:04:03.245Z,79.9
2017-07-27T08:05:04.653Z,79.9
2017-07-27T08:06:06.058Z,79.8
2017-07-27T08:07:07.464Z,78.9
2017-07-27T08:08:08.864Z,79.8
2017-07-27T08:09:10.270Z,79.3
2017-07-27T08:10:11.672Z,78.8
2017-07-27T08:11:13.104Z,79.0
2017-07-27T08:12:14.506Z,78.4
2017-07-27T08:13:15.915Z,78.5
2017-07-27T08:14:17.329Z,78.3
2017-07-27T08:15:18.715Z,78.3
2017-07-27T08:16:20.121Z,78.1
2017-07-27T08:17:21.525Z,78.0
2017-07-27T08:18:22.933Z,77.6
2017-07-27T08:19:26.790Z,77.5
2017-07-27T08:20:27.677Z,77.6
2017-07-27T08:21:29.083Z,78.0
2017-07-27T08:22:30.477Z,78.6
2017-07-27T08:23:31.886Z,78.3
2017-07-27T08:24:33.291Z,77.4
2017-07-27T08:25:34.697Z,77.6
2017-07-27T08:26:36.119Z,78.4
2017-07-27T08:27:37.523Z,77.7
2017-07-27T08:28:38.929Z,78.4
2017-07-27T08:29:40.338Z,78.1
2017-07-27T08:30:41.732Z,78.0
2017-07-27T08:31:43.136Z,78.0
2017-07-27T08:32:44.542Z,77.2
2017-07-27T08:33:45.948Z,77.6
2017-07-27T08:34:47.356Z,78.6
2017-07-27T08:35:48.757Z,77.3
2017-07-27T08:36:50.164Z,76.5
2017-07-27T08:37:51.567Z,75.7
2017-07-27T08:38:52.973Z,75.1
2017-07-27T08:39:54.376Z,74.9
2017-07-27T08:40:55.780Z,75.1
2017-07-27T08:41:57.186Z,71.0
2017-07-27T08:42:58.588Z,71.4
2017-07-27T08:44:00.051Z,71.0
2017-07-27T08:45:01.454Z,71.0
2017-07-27T08:46:02.857Z,71.4
2017-07-27T08:47:04.262Z,70.4
2017-07-27T08:48:05.669Z,68.5
2017-07-27T08:49:07.075Z,68.0
2017-07-27T08:50:08.478Z,68.4
2017-07-27T08:51:09.879Z,66.6
2017-07-27T08:52:11.297Z,66.5
2017-07-27T08:53:12.714Z,65.6
2017-07-27T08:54:14.119Z,65.9
2017-07-27T08:55:15.525Z,65.8
2017-07-27T08:56:16.930Z,66.1
2017-07-27T08:57:18.337Z,64.7
2017-07-27T08:58:19.737Z,62.7
2017-07-27T08:59:21.140Z,62.6
2017-07-27T09:00:22.546Z,62.0
2017-07-27T09:01:23.979Z,62.4
2017-07-27T09:02:25.384Z,63.0
2017-07-27T09:03:26.789Z,63.7
2017-07-27T09:04:28.190Z,63.2
2017-07-27T09:05:29.595Z,62.2
2017-07-27T09:06:31.001Z,63.1
2017-07-27T09:07:32.405Z,61.5
2017-07-27T09:08:33.811Z,60.6
2017-07-27T09:09:35.219Z,60.8
2017-07-27T09:10:36.626Z,62.1
2017-07-27T09:11:38.032Z,62.1
2017-07-27T09:12:39.485Z,61.7
2017-07-27T09:13:40.896Z,60.8
2017-07-27T09:14:42.303Z,61.4
2017-07-27T09:15:43.710Z,61.7
2017-07-27T09:16:45.115Z,60.8
2017-07-27T09:17:46.529Z,60.3
2017-07-27T09:18:47.929Z,60.2
2017-07-27T09:19:49.460Z,61.0
2017-07-27T09:20:50.857Z,61.4
2017-07-27T09:21:52.261Z,61.9
2017-07-27T09:22:53.679Z,62.1
2017-07-27T09:23:55.083Z,61.1
2017-07-27T09:24:56.489Z,62.2
2017-07-27T09:25:57.895Z,62.6
2017-07-27T09:26:59.301Z,63.2
2017-07-27T09:28:00.703Z,63.7
2017-07-27T09:29:02.105Z,63.1
2017-07-27T09:30:03.511Z,63.7
2017-07-27T09:31:04.919Z,64.6
2017-07-27T09:32:06.334Z,64.5
2017-07-27T09:33:07.740Z,64.5
2017-07-27T09:34:09.157Z,64.9
2017-07-27T09:35:10.562Z,65.3
2017-07-27T09:36:11.964Z,64.8
2017-07-27T09:37:13.373Z,65.8
2017-07-27T09:38:14.778Z,65.9
2017-07-27T09:39:16.184Z,66.9
2017-07-27T09:40:17.588Z,66.2
2017-07-27T09:41:18.995Z,66.8
2017-07-27T09:42:20.397Z,67.9
2017-07-27T09:43:21.803Z,67.1
2017-07-27T09:44:23.210Z,66.8
2017-07-27T09:45:24.617Z,66.5
2017-07-27T09:46:26.022Z,67.1
2017-07-27T09:47:27.433Z,68.0
2017-07-27T09:48:28.836Z,68.4
2017-07-27T09:49:30.243Z,69.2
2017-07-27T09:50:31.645Z,68.7
2017-07-27T09:51:33.053Z,69.7
2017-07-27T09:52:34.455Z,69.4
2017-07-27T09:53:35.861Z,69.6
2017-07-27T09:54:37.268Z,69.3
2017-07-27T09:55:38.670Z,69.5
2017-07-27T09:56:40.078Z,69.5
2017-07-27T09:57:41.486Z,69.8
2017-07-27T09:58:42.886Z,69.5
2017-07-27T09:59:44.297Z,68.5
2017-07-27T10:00:45.709Z,69.1
2017-07-27T10:01:47.113Z,68.6
2017-07-27T10:02:48.539Z,67.7
2017-07-27T10:03:49.941Z,67.5
2017-07-27T10:04:51.346Z,68.2
2017-07-27T10:05:52.838Z,66.3
2017-07-27T10:06:54.239Z,66.7
2017-07-27T10:07:55.646Z,67.3
2017-07-27T10:08:57.045Z,67.3
2017-07-27T10:09:58.453Z,65.9
2017-07-27T10:10:59.854Z,66.4
2017-07-27T10:12:01.682Z,66.5
2017-07-27T10:13:03.267Z,64.9
2017-07-27T10:14:04.671Z,64.9
2017-07-27T10:15:06.086Z,64.9
2017-07-27T10:16:07.482Z,64.7
2017-07-27T10:17:08.884Z,64.2
2017-07-27T10:18:10.287Z,64.4
2017-07-27T10:19:11.689Z,65.2
2017-07-27T10:20:13.095Z,65.0
2017-07-27T10:21:14.522Z,64.4
2017-07-27T10:22:15.934Z,64.5
2017-07-27T10:23:17.349Z,63.5
2017-07-27T10:24:18.769Z,64.2
2017-07-27T10:25:20.158Z,64.4
2017-07-27T10:26:21.571Z,64.6
2017-07-27T10:27:22.982Z,64.6
2017-07-27T10:28:24.385Z,65.3
2017-07-27T10:29:25.790Z,65.7
2017-07-27T10:30:27.202Z,65.3
2017-07-27T10:31:28.601Z,65.6
2017-07-27T10:32:30.004Z,66.2
2017-07-27T10:33:31.421Z,65.9
2017-07-27T10:34:32.818Z,66.7
2017-07-27T10:35:34.221Z,65.9
2017-07-27T10:36:35.630Z,65.8
2017-07-27T10:37:37.033Z,65.9
2017-07-27T10:38:38.435Z,65.1
2017-07-27T10:39:39.839Z,65.3
2017-07-27T10:40:41.243Z,65.8
2017-07-27T10:41:42.651Z,65.7
2017-07-27T10:42:44.056Z,65.9
2017-07-27T10:43:45.524Z,65.3
2017-07-27T10:44:46.925Z,66.2
2017-07-27T10:45:48.330Z,66.0
2017-07-27T10:46:49.735Z,66.5
2017-07-27T10:47:51.144Z,65.7
2017-07-27T10:48:52.543Z,66.2
2017-07-27T10:49:53.948Z,66.0
2017-07-27T10:50:55.356Z,66.0
2017-07-27T10:51:56.755Z,65.5
2017-07-27T10:52:58.167Z,66.1
2017-07-27T10:53:59.572Z,66.2
2017-07-27T10:55:00.974Z,66.2
2017-07-27T10:56:02.386Z,66.6
2017-07-27T10:57:03.785Z,66.6
2017-07-27T10:58:05.190Z,65.9
2017-07-27T10:59:06.617Z,65.1
2017-07-27T11:00:07.999Z,65.6
2017-07-27T11:01:09.403Z,66.7
2017-07-27T11:02:10.805Z,66.7
2017-07-27T11:03:12.209Z,67.0
2017-07-27T11:04:13.620Z,66.2
2017-07-27T11:05:15.039Z,66.4
2017-07-27T11:06:16.443Z,66.2
2017-07-27T11:07:17.844Z,65.3
2017-07-27T11:08:19.248Z,65.8
2017-07-27T11:09:20.652Z,66.2
2017-07-27T11:10:22.057Z,66.0
2017-07-27T11:11:23.464Z,65.7
2017-07-27T11:12:24.867Z,65.9
2017-07-27T11:13:26.270Z,65.8
2017-07-27T11:14:27.674Z,65.6
2017-07-27T11:15:29.078Z,66.6
2017-07-27T11:16:30.484Z,66.1
2017-07-27T11:17:31.890Z,66.1
2017-07-27T11:18:33.290Z,66.5
2017-07-27T11:19:34.702Z,66.4
2017-07-27T11:20:36.105Z,66.3
2017-07-27T11:21:37.507Z,66.7
2017-07-27T11:22:38.912Z,66.8
2017-07-27T11:23:40.315Z,66.3
2017-07-27T11:24:41.720Z,66.7
2017-07-27T11:25:43.131Z,66.2
2017-07-27T11:26:44.536Z,66.0
2017-07-27T11:27:45.941Z,65.0
2017-07-27T11:28:47.345Z,65.4
2017-07-27T11:29:48.752Z,65.9
2017-07-27T11:30:50.155Z,66.2
2017-07-27T11:31:51.557Z,65.5
2017-07-27T11:32:52.962Z,65.2
2017-07-27T11:33:54.369Z,65.4
2017-07-27T11:34:55.769Z,65.3
2017-07-27T11:35:57.171Z,66.0
2017-07-27T11:36:58.575Z,65.1
2017-07-27T11:37:59.977Z,65.7
2017-07-27T11:39:01.383Z,67.8
2017-07-27T11:40:02.789Z,68.4
2017-07-27T11:41:04.198Z,68.4
2017-07-27T11:42:05.601Z,68.4
2017-07-27T11:43:06.998Z,68.7
2017-07-27T11:44:08.408Z,68.4
2017-07-27T11:45:09.807Z,68.4
2017-07-27T11:46:11.219Z,68.5
2017-07-27T11:47:12.617Z,68.2
2017-07-27T11:48:14.020Z,68.4
2017-07-27T11:49:15.421Z,68.8
2017-07-27T11:50:16.824Z,68.8
2017-07-27T11:51:18.225Z,69.7
2017-07-27T11:52:19.628Z,69.2
2017-07-27T11:53:21.033Z,69.1
2017-07-27T11:54:22.440Z,68.1
2017-07-27T11:55:23.846Z,67.7
2017-07-27T11:56:25.246Z,67.8
2017-07-27T11:57:26.650Z,68.0
2017-07-27T11:58:28.056Z,68.1
2017-07-27T11:59:29.458Z,68.4
2017-07-27T12:00:30.866Z,67.3
2017-07-27T12:01:32.269Z,66.6
2017-07-27T12:02:33.676Z,65.1
2017-07-27T12:03:35.077Z,65.7
2017-07-27T12:04:36.486Z,63.7
2017-07-27T12:05:37.895Z,63.9
2017-07-27T12:06:39.302Z,62.2
2017-07-27T12:07:40.706Z,60.3
2017-07-27T12:08:42.110Z,60.0
2017-07-27T12:09:43.520Z,59.1
2017-07-27T12:10:44.925Z,58.6
2017-07-27T12:11:46.331Z,58.6
2017-07-27T12:12:47.745Z,57.4
2017-07-27T12:13:49.156Z,57.4
2017-07-27T12:14:50.606Z,56.7
2017-07-27T12:15:52.013Z,56.3
2017-07-27T12:16:53.420Z,55.4
2017-07-27T12:17:54.823Z,54.8
2017-07-27T12:18:56.227Z,55.8
2017-07-27T12:19:57.633Z,56.2
2017-07-27T12:20:59.041Z,56.0
2017-07-27T12:22:00.448Z,56.6
2017-07-27T12:23:01.853Z,56.3
2017-07-27T12:24:03.276Z,56.6
2017-07-27T12:25:04.681Z,56.5
2017-07-27T12:26:06.088Z,56.0
2017-07-27T12:27:07.513Z,57.0
2017-07-27T12:28:08.903Z,57.3
2017-07-27T12:29:10.309Z,56.9
2017-07-27T12:30:11.712Z,56.8
2017-07-27T12:31:13.126Z,56.9
2017-07-27T12:32:14.528Z,57.0
2017-07-27T12:33:15.931Z,57.5
2017-07-27T12:34:17.333Z,57.2
2017-07-27T12:35:18.748Z,57.7
2017-07-27T12:36:20.149Z,58.3
2017-07-27T12:37:21.558Z,58.5
2017-07-27T12:38:22.964Z,58.4
2017-07-27T12:39:24.367Z,58.9
2017-07-27T12:40:25.772Z,59.6
2017-07-27T12:41:27.175Z,59.4
2017-07-27T12:42:28.616Z,60.5
2017-07-27T12:43:29.985Z,59.6
2017-07-27T12:44:31.392Z,60.0
2017-07-27T12:45:32.803Z,60.2
2017-07-27T12:46:34.211Z,59.5
2017-07-27T12:47:35.608Z,59.1
2017-07-27T12:48:37.015Z,59.2
2017-07-27T12:49:38.423Z,60.4
2017-07-27T12:50:39.823Z,59.6
2017-07-27T12:51:41.231Z,59.2
2017-07-27T12:52:42.638Z,59.7
2017-07-27T12:53:44.043Z,59.9
2017-07-27T12:54:45.449Z,60.4
2017-07-27T12:55:46.855Z,60.7
2017-07-27T12:56:48.261Z,60.5
2017-07-27T12:57:49.667Z,59.4
2017-07-27T12:58:51.075Z,59.5
2017-07-27T12:59:52.484Z,58.8
2017-07-27T13:00:53.887Z,59.3
2017-07-27T13:01:55.301Z,59.4
2017-07-27T13:02:56.703Z,59.3
2017-07-27T13:03:58.107Z,58.5
2017-07-27T13:04:59.520Z,56.9
2017-07-27T13:06:00.921Z,56.7
2017-07-27T13:07:02.336Z,57.4
2017-07-27T13:08:03.733Z,58.9
2017-07-27T13:09:05.139Z,58.6
2017-07-27T13:10:06.564Z,58.1
2017-07-27T13:11:07.963Z,57.0
2017-07-27T13:12:09.372Z,56.9
2017-07-27T13:13:10.823Z,57.3
2017-07-27T13:14:12.230Z,57.7
2017-07-27T13:15:13.631Z,58.1
2017-07-27T13:16:15.037Z,58.5
2017-07-27T13:17:16.439Z,59.5
2017-07-27T13:18:17.843Z,59.0
2017-07-27T13:19:19.247Z,59.4
2017-07-27T13:20:20.654Z,59.4
2017-07-27T13:21:22.066Z,59.8
2017-07-27T13:22:23.469Z,59.0
2017-07-27T13:23:24.873Z,59.7
2017-07-27T13:24:26.281Z,59.2
2017-07-27T13:25:27.677Z,58.5
2017-07-27T13:26:29.086Z,59.1
2017-07-27T13:27:30.492Z,57.9
2017-07-27T13:28:31.900Z,58.9
2017-07-27T13:29:33.302Z,58.2
2017-07-27T13:30:34.706Z,57.8
2017-07-27T13:31:36.111Z,58.3
2017-07-27T13:32:37.520Z,59.1
2017-07-27T13:33:38.920Z,58.8
2017-07-27T13:34:40.325Z,58.5
2017-07-27T13:35:41.737Z,58.9
2017-07-27T13:36:43.138Z,57.6
2017-07-27T13:37:44.554Z,57.9